sensor_id;sensor_type;location;lat;lon;timestamp;P1;durP1;ratioP1;P2;durP2;ratioP2
49738;SDS011;53662;50.114;8.626;2024-03-08T00:01:55;21.48;;;12.90;;
49738;SDS011;53662;50.114;8.626;2024-03-08T00:04:20;18.75;;;12.50;;
49738;SDS011;53662;50.114;8.626;2024-03-08T00:06:46;22.27;;;13.38;;
49738;SDS011;53662;50.114;8.626;2024-03-08T00:09:12;19.33;;;13.52;;
49738;SDS011;53662;50.114;8.626;2024-03-08T00:11:39;17.65;;;13.07;;
49738;SDS011;53662;50.114;8.626;2024-03-08T00:14:05;19.67;;;12.30;;
49738;SDS011;53662;50.114;8.626;2024-03-08T00:16:32;19.10;;;11.82;;
49738;SDS011;53662;50.114;8.626;2024-03-08T00:18:58;21.88;;;13.45;;
49738;SDS011;53662;50.114;8.626;2024-03-08T00:21:24;21.08;;;13.57;;
49738;SDS011;53662;50.114;8.626;2024-03-08T00:23:51;23.48;;;13.30;;
49738;SDS011;53662;50.114;8.626;2024-03-08T00:26:19;21.08;;;13.35;;
49738;SDS011;53662;50.114;8.626;2024-03-08T00:28:45;19.77;;;13.10;;
49738;SDS011;53662;50.114;8.626;2024-03-08T00:31:11;22.70;;;13.75;;
49738;SDS011;53662;50.114;8.626;2024-03-08T00:33:37;32.22;;;13.27;;
49738;SDS011;53662;50.114;8.626;2024-03-08T00:36:04;20.42;;;13.85;;
49738;SDS011;53662;50.114;8.626;2024-03-08T00:38:30;24.25;;;14.90;;
49738;SDS011;53662;50.114;8.626;2024-03-08T00:40:56;20.80;;;13.55;;
49738;SDS011;53662;50.114;8.626;2024-03-08T00:43:22;22.45;;;14.38;;
49738;SDS011;53662;50.114;8.626;2024-03-08T00:45:48;22.08;;;13.90;;
49738;SDS011;53662;50.114;8.626;2024-03-08T00:48:14;21.33;;;13.45;;
49738;SDS011;53662;50.114;8.626;2024-03-08T00:50:40;22.20;;;13.70;;
49738;SDS011;53662;50.114;8.626;2024-03-08T00:53:06;19.90;;;13.40;;
49738;SDS011;53662;50.114;8.626;2024-03-08T00:55:32;23.77;;;13.80;;
49738;SDS011;53662;50.114;8.626;2024-03-08T00:57:58;20.00;;;12.80;;
49738;SDS011;53662;50.114;8.626;2024-03-08T01:00:24;21.00;;;12.70;;
49738;SDS011;53662;50.114;8.626;2024-03-08T01:02:50;22.58;;;13.82;;
49738;SDS011;53662;50.114;8.626;2024-03-08T01:05:16;19.25;;;13.45;;
49738;SDS011;53662;50.114;8.626;2024-03-08T01:07:42;20.40;;;13.68;;
49738;SDS011;53662;50.114;8.626;2024-03-08T01:10:10;22.13;;;13.63;;
49738;SDS011;53662;50.114;8.626;2024-03-08T01:12:36;22.27;;;13.52;;
49738;SDS011;53662;50.114;8.626;2024-03-08T01:15:02;18.38;;;12.95;;
49738;SDS011;53662;50.114;8.626;2024-03-08T01:17:28;22.20;;;14.05;;
49738;SDS011;53662;50.114;8.626;2024-03-08T01:19:54;19.73;;;13.50;;
49738;SDS011;53662;50.114;8.626;2024-03-08T01:22:20;21.95;;;14.20;;
49738;SDS011;53662;50.114;8.626;2024-03-08T01:24:47;17.80;;;13.32;;
49738;SDS011;53662;50.114;8.626;2024-03-08T01:27:13;24.63;;;14.93;;
49738;SDS011;53662;50.114;8.626;2024-03-08T01:29:39;27.50;;;13.73;;
49738;SDS011;53662;50.114;8.626;2024-03-08T01:32:05;22.95;;;14.43;;
49738;SDS011;53662;50.114;8.626;2024-03-08T01:34:31;19.88;;;13.07;;
49738;SDS011;53662;50.114;8.626;2024-03-08T01:36:58;25.17;;;13.98;;
49738;SDS011;53662;50.114;8.626;2024-03-08T01:39:24;26.55;;;13.57;;
49738;SDS011;53662;50.114;8.626;2024-03-08T01:41:50;23.27;;;13.48;;
49738;SDS011;53662;50.114;8.626;2024-03-08T01:44:16;26.45;;;14.85;;
49738;SDS011;53662;50.114;8.626;2024-03-08T01:46:45;20.05;;;13.30;;
49738;SDS011;53662;50.114;8.626;2024-03-08T01:49:12;22.25;;;14.13;;
49738;SDS011;53662;50.114;8.626;2024-03-08T01:51:38;25.15;;;14.77;;
49738;SDS011;53662;50.114;8.626;2024-03-08T01:54:05;19.70;;;14.20;;
49738;SDS011;53662;50.114;8.626;2024-03-08T01:56:31;26.90;;;15.00;;
49738;SDS011;53662;50.114;8.626;2024-03-08T01:58:57;22.27;;;13.95;;
49738;SDS011;53662;50.114;8.626;2024-03-08T02:01:23;20.23;;;14.05;;
49738;SDS011;53662;50.114;8.626;2024-03-08T02:03:50;22.90;;;14.02;;
49738;SDS011;53662;50.114;8.626;2024-03-08T02:06:16;19.65;;;13.38;;
49738;SDS011;53662;50.114;8.626;2024-03-08T02:08:42;28.00;;;14.20;;
49738;SDS011;53662;50.114;8.626;2024-03-08T02:11:09;29.23;;;14.45;;
49738;SDS011;53662;50.114;8.626;2024-03-08T02:13:35;23.50;;;14.68;;
49738;SDS011;53662;50.114;8.626;2024-03-08T02:16:01;21.23;;;14.80;;
49738;SDS011;53662;50.114;8.626;2024-03-08T02:18:28;27.38;;;14.77;;
49738;SDS011;53662;50.114;8.626;2024-03-08T02:21:01;19.55;;;14.00;;
49738;SDS011;53662;50.114;8.626;2024-03-08T02:23:27;22.30;;;14.45;;
49738;SDS011;53662;50.114;8.626;2024-03-08T02:25:54;17.98;;;13.93;;
49738;SDS011;53662;50.114;8.626;2024-03-08T02:28:21;22.42;;;14.82;;
49738;SDS011;53662;50.114;8.626;2024-03-08T02:30:47;25.50;;;16.48;;
49738;SDS011;53662;50.114;8.626;2024-03-08T02:33:13;28.45;;;15.77;;
49738;SDS011;53662;50.114;8.626;2024-03-08T02:35:43;28.95;;;14.93;;
49738;SDS011;53662;50.114;8.626;2024-03-08T02:38:10;24.42;;;14.50;;
49738;SDS011;53662;50.114;8.626;2024-03-08T02:40:36;21.60;;;15.30;;
49738;SDS011;53662;50.114;8.626;2024-03-08T02:43:02;21.17;;;13.88;;
49738;SDS011;53662;50.114;8.626;2024-03-08T02:45:29;28.90;;;15.27;;
49738;SDS011;53662;50.114;8.626;2024-03-08T02:47:55;29.13;;;16.63;;
49738;SDS011;53662;50.114;8.626;2024-03-08T02:50:21;24.75;;;15.73;;
49738;SDS011;53662;50.114;8.626;2024-03-08T02:52:48;29.88;;;15.43;;
49738;SDS011;53662;50.114;8.626;2024-03-08T02:55:14;27.33;;;15.32;;
49738;SDS011;53662;50.114;8.626;2024-03-08T02:57:41;28.17;;;14.73;;
49738;SDS011;53662;50.114;8.626;2024-03-08T03:00:07;26.98;;;15.70;;
49738;SDS011;53662;50.114;8.626;2024-03-08T03:02:38;24.70;;;15.02;;
49738;SDS011;53662;50.114;8.626;2024-03-08T03:05:04;23.73;;;14.82;;
49738;SDS011;53662;50.114;8.626;2024-03-08T03:07:34;23.80;;;13.88;;
49738;SDS011;53662;50.114;8.626;2024-03-08T03:10:00;27.27;;;15.88;;
49738;SDS011;53662;50.114;8.626;2024-03-08T03:12:27;26.35;;;15.35;;
49738;SDS011;53662;50.114;8.626;2024-03-08T03:14:53;27.38;;;15.57;;
49738;SDS011;53662;50.114;8.626;2024-03-08T03:17:19;25.75;;;16.20;;
49738;SDS011;53662;50.114;8.626;2024-03-08T03:19:45;31.42;;;15.75;;
49738;SDS011;53662;50.114;8.626;2024-03-08T03:22:14;22.48;;;15.38;;
49738;SDS011;53662;50.114;8.626;2024-03-08T03:24:40;26.10;;;15.95;;
49738;SDS011;53662;50.114;8.626;2024-03-08T03:27:07;26.65;;;15.82;;
49738;SDS011;53662;50.114;8.626;2024-03-08T03:29:36;21.55;;;14.82;;
49738;SDS011;53662;50.114;8.626;2024-03-08T03:32:02;28.13;;;15.82;;
49738;SDS011;53662;50.114;8.626;2024-03-08T03:34:29;27.90;;;16.17;;
49738;SDS011;53662;50.114;8.626;2024-03-08T03:36:55;21.88;;;14.57;;
49738;SDS011;53662;50.114;8.626;2024-03-08T03:39:21;27.02;;;16.27;;
49738;SDS011;53662;50.114;8.626;2024-03-08T03:41:47;27.92;;;15.98;;
49738;SDS011;53662;50.114;8.626;2024-03-08T03:44:16;26.48;;;15.52;;
49738;SDS011;53662;50.114;8.626;2024-03-08T03:46:43;23.48;;;15.70;;
49738;SDS011;53662;50.114;8.626;2024-03-08T03:49:12;23.88;;;15.32;;
49738;SDS011;53662;50.114;8.626;2024-03-08T03:51:38;28.48;;;16.95;;
49738;SDS011;53662;50.114;8.626;2024-03-08T03:54:04;29.13;;;15.95;;
49738;SDS011;53662;50.114;8.626;2024-03-08T03:56:30;23.58;;;15.90;;
49738;SDS011;53662;50.114;8.626;2024-03-08T03:58:56;25.88;;;15.43;;
49738;SDS011;53662;50.114;8.626;2024-03-08T04:01:21;23.50;;;16.42;;
49738;SDS011;53662;50.114;8.626;2024-03-08T04:03:48;24.70;;;15.68;;
49738;SDS011;53662;50.114;8.626;2024-03-08T04:06:14;25.10;;;16.13;;
49738;SDS011;53662;50.114;8.626;2024-03-08T04:08:40;27.10;;;16.42;;
49738;SDS011;53662;50.114;8.626;2024-03-08T04:11:07;31.85;;;17.77;;
49738;SDS011;53662;50.114;8.626;2024-03-08T04:13:35;30.35;;;17.02;;
49738;SDS011;53662;50.114;8.626;2024-03-08T04:16:01;26.88;;;17.23;;
49738;SDS011;53662;50.114;8.626;2024-03-08T04:18:27;29.15;;;16.95;;
49738;SDS011;53662;50.114;8.626;2024-03-08T04:20:53;27.00;;;15.80;;
49738;SDS011;53662;50.114;8.626;2024-03-08T04:23:20;25.05;;;16.38;;
49738;SDS011;53662;50.114;8.626;2024-03-08T04:25:46;27.70;;;17.33;;
49738;SDS011;53662;50.114;8.626;2024-03-08T04:28:12;27.77;;;18.35;;
49738;SDS011;53662;50.114;8.626;2024-03-08T04:30:38;31.10;;;17.10;;
49738;SDS011;53662;50.114;8.626;2024-03-08T04:33:07;26.05;;;16.33;;
49738;SDS011;53662;50.114;8.626;2024-03-08T04:35:33;27.98;;;17.73;;
49738;SDS011;53662;50.114;8.626;2024-03-08T04:37:59;27.48;;;17.00;;
49738;SDS011;53662;50.114;8.626;2024-03-08T04:40:25;28.65;;;17.45;;
49738;SDS011;53662;50.114;8.626;2024-03-08T04:42:51;27.20;;;17.30;;
49738;SDS011;53662;50.114;8.626;2024-03-08T04:45:18;37.13;;;18.30;;
49738;SDS011;53662;50.114;8.626;2024-03-08T04:47:44;35.40;;;18.27;;
49738;SDS011;53662;50.114;8.626;2024-03-08T04:50:10;29.23;;;17.20;;
49738;SDS011;53662;50.114;8.626;2024-03-08T04:52:36;34.10;;;17.08;;
49738;SDS011;53662;50.114;8.626;2024-03-08T04:55:02;28.98;;;17.73;;
49738;SDS011;53662;50.114;8.626;2024-03-08T04:57:30;28.52;;;17.08;;
49738;SDS011;53662;50.114;8.626;2024-03-08T04:59:55;29.55;;;17.92;;
49738;SDS011;53662;50.114;8.626;2024-03-08T05:02:23;32.15;;;17.08;;
49738;SDS011;53662;50.114;8.626;2024-03-08T05:04:49;30.67;;;17.88;;
49738;SDS011;53662;50.114;8.626;2024-03-08T05:07:15;42.97;;;18.88;;
49738;SDS011;53662;50.114;8.626;2024-03-08T05:09:41;27.63;;;17.75;;
49738;SDS011;53662;50.114;8.626;2024-03-08T05:12:07;29.58;;;16.58;;
49738;SDS011;53662;50.114;8.626;2024-03-08T05:14:33;44.15;;;19.20;;
49738;SDS011;53662;50.114;8.626;2024-03-08T05:17:00;33.95;;;18.15;;
49738;SDS011;53662;50.114;8.626;2024-03-08T05:19:26;35.72;;;18.83;;
49738;SDS011;53662;50.114;8.626;2024-03-08T05:21:52;32.15;;;18.80;;
49738;SDS011;53662;50.114;8.626;2024-03-08T05:24:18;31.15;;;19.05;;
49738;SDS011;53662;50.114;8.626;2024-03-08T05:26:44;29.17;;;19.48;;
49738;SDS011;53662;50.114;8.626;2024-03-08T05:29:10;32.58;;;18.65;;
49738;SDS011;53662;50.114;8.626;2024-03-08T05:31:48;33.08;;;19.48;;
49738;SDS011;53662;50.114;8.626;2024-03-08T05:34:14;31.65;;;18.70;;
49738;SDS011;53662;50.114;8.626;2024-03-08T05:36:41;35.65;;;19.45;;
49738;SDS011;53662;50.114;8.626;2024-03-08T05:39:11;32.88;;;18.10;;
49738;SDS011;53662;50.114;8.626;2024-03-08T05:41:38;30.15;;;18.25;;
49738;SDS011;53662;50.114;8.626;2024-03-08T05:44:05;41.38;;;19.13;;
49738;SDS011;53662;50.114;8.626;2024-03-08T05:46:31;36.75;;;19.67;;
49738;SDS011;53662;50.114;8.626;2024-03-08T05:48:57;34.83;;;18.77;;
49738;SDS011;53662;50.114;8.626;2024-03-08T05:51:24;37.03;;;19.20;;
49738;SDS011;53662;50.114;8.626;2024-03-08T05:53:52;28.25;;;17.25;;
49738;SDS011;53662;50.114;8.626;2024-03-08T05:56:18;34.50;;;18.60;;
49738;SDS011;53662;50.114;8.626;2024-03-08T05:58:44;29.65;;;18.98;;
49738;SDS011;53662;50.114;8.626;2024-03-08T06:01:10;37.50;;;20.33;;
49738;SDS011;53662;50.114;8.626;2024-03-08T06:03:37;46.17;;;20.20;;
49738;SDS011;53662;50.114;8.626;2024-03-08T06:06:13;38.67;;;20.63;;
49738;SDS011;53662;50.114;8.626;2024-03-08T06:08:39;39.38;;;19.02;;
49738;SDS011;53662;50.114;8.626;2024-03-08T06:11:05;38.63;;;19.70;;
49738;SDS011;53662;50.114;8.626;2024-03-08T06:13:31;41.33;;;18.67;;
49738;SDS011;53662;50.114;8.626;2024-03-08T06:15:58;39.78;;;19.63;;
49738;SDS011;53662;50.114;8.626;2024-03-08T06:18:25;39.08;;;20.42;;
49738;SDS011;53662;50.114;8.626;2024-03-08T06:20:51;36.90;;;21.23;;
49738;SDS011;53662;50.114;8.626;2024-03-08T06:23:17;39.78;;;20.15;;
49738;SDS011;53662;50.114;8.626;2024-03-08T06:25:44;32.75;;;19.50;;
49738;SDS011;53662;50.114;8.626;2024-03-08T06:28:10;33.55;;;19.98;;
49738;SDS011;53662;50.114;8.626;2024-03-08T06:30:36;30.98;;;18.65;;
49738;SDS011;53662;50.114;8.626;2024-03-08T06:33:02;38.47;;;19.25;;
49738;SDS011;53662;50.114;8.626;2024-03-08T06:35:28;36.63;;;19.42;;
49738;SDS011;53662;50.114;8.626;2024-03-08T06:37:57;37.63;;;18.77;;
49738;SDS011;53662;50.114;8.626;2024-03-08T06:40:23;54.40;;;19.38;;
49738;SDS011;53662;50.114;8.626;2024-03-08T06:42:49;44.28;;;19.65;;
49738;SDS011;53662;50.114;8.626;2024-03-08T06:45:17;37.10;;;18.33;;
49738;SDS011;53662;50.114;8.626;2024-03-08T06:47:46;44.42;;;18.92;;
49738;SDS011;53662;50.114;8.626;2024-03-08T06:50:12;35.58;;;18.27;;
49738;SDS011;53662;50.114;8.626;2024-03-08T06:52:40;51.42;;;20.33;;
49738;SDS011;53662;50.114;8.626;2024-03-08T06:55:07;46.42;;;20.35;;
49738;SDS011;53662;50.114;8.626;2024-03-08T06:57:36;35.10;;;18.77;;
49738;SDS011;53662;50.114;8.626;2024-03-08T07:00:04;28.85;;;18.80;;
49738;SDS011;53662;50.114;8.626;2024-03-08T07:02:30;38.90;;;19.27;;
49738;SDS011;53662;50.114;8.626;2024-03-08T07:04:57;44.95;;;19.60;;
49738;SDS011;53662;50.114;8.626;2024-03-08T07:07:23;31.65;;;18.23;;
49738;SDS011;53662;50.114;8.626;2024-03-08T07:09:49;33.65;;;18.17;;
49738;SDS011;53662;50.114;8.626;2024-03-08T07:12:15;37.70;;;19.05;;
49738;SDS011;53662;50.114;8.626;2024-03-08T07:14:42;40.35;;;18.38;;
49738;SDS011;53662;50.114;8.626;2024-03-08T07:17:10;51.13;;;18.67;;
49738;SDS011;53662;50.114;8.626;2024-03-08T07:19:36;44.40;;;20.02;;
49738;SDS011;53662;50.114;8.626;2024-03-08T07:22:03;30.85;;;18.02;;
49738;SDS011;53662;50.114;8.626;2024-03-08T07:24:29;29.95;;;18.75;;
49738;SDS011;53662;50.114;8.626;2024-03-08T07:27:17;34.60;;;19.15;;
49738;SDS011;53662;50.114;8.626;2024-03-08T07:29:43;37.28;;;20.00;;
49738;SDS011;53662;50.114;8.626;2024-03-08T07:32:09;43.65;;;19.02;;
49738;SDS011;53662;50.114;8.626;2024-03-08T07:34:50;35.10;;;19.48;;
49738;SDS011;53662;50.114;8.626;2024-03-08T07:37:16;60.00;;;20.00;;
49738;SDS011;53662;50.114;8.626;2024-03-08T07:39:44;42.35;;;20.02;;
49738;SDS011;53662;50.114;8.626;2024-03-08T07:42:10;47.47;;;20.60;;
49738;SDS011;53662;50.114;8.626;2024-03-08T07:44:36;32.75;;;18.67;;
49738;SDS011;53662;50.114;8.626;2024-03-08T07:47:02;41.83;;;19.38;;
49738;SDS011;53662;50.114;8.626;2024-03-08T07:49:28;41.67;;;21.30;;
49738;SDS011;53662;50.114;8.626;2024-03-08T07:51:55;36.92;;;20.58;;
49738;SDS011;53662;50.114;8.626;2024-03-08T07:54:21;51.95;;;21.48;;
49738;SDS011;53662;50.114;8.626;2024-03-08T07:56:47;43.42;;;20.65;;
49738;SDS011;53662;50.114;8.626;2024-03-08T07:59:13;37.97;;;21.10;;
49738;SDS011;53662;50.114;8.626;2024-03-08T08:01:39;34.72;;;18.77;;
49738;SDS011;53662;50.114;8.626;2024-03-08T08:04:05;41.65;;;19.75;;
49738;SDS011;53662;50.114;8.626;2024-03-08T08:06:31;30.75;;;19.55;;
49738;SDS011;53662;50.114;8.626;2024-03-08T08:08:58;39.08;;;19.10;;
49738;SDS011;53662;50.114;8.626;2024-03-08T08:11:25;41.53;;;19.35;;
49738;SDS011;53662;50.114;8.626;2024-03-08T08:13:52;42.28;;;20.27;;
49738;SDS011;53662;50.114;8.626;2024-03-08T08:16:19;30.25;;;17.83;;
49738;SDS011;53662;50.114;8.626;2024-03-08T08:18:45;32.05;;;17.83;;
49738;SDS011;53662;50.114;8.626;2024-03-08T08:21:12;34.00;;;18.55;;
49738;SDS011;53662;50.114;8.626;2024-03-08T08:23:38;32.28;;;17.77;;
49738;SDS011;53662;50.114;8.626;2024-03-08T08:26:04;32.20;;;17.08;;
49738;SDS011;53662;50.114;8.626;2024-03-08T08:28:32;27.63;;;17.13;;
49738;SDS011;53662;50.114;8.626;2024-03-08T08:30:58;29.75;;;17.63;;
49738;SDS011;53662;50.114;8.626;2024-03-08T08:33:24;40.78;;;17.48;;
49738;SDS011;53662;50.114;8.626;2024-03-08T08:35:50;29.52;;;17.77;;
49738;SDS011;53662;50.114;8.626;2024-03-08T08:38:18;30.63;;;17.25;;
49738;SDS011;53662;50.114;8.626;2024-03-08T08:40:45;32.17;;;17.35;;
49738;SDS011;53662;50.114;8.626;2024-03-08T08:43:12;28.92;;;18.35;;
49738;SDS011;53662;50.114;8.626;2024-03-08T08:45:38;32.65;;;17.75;;
49738;SDS011;53662;50.114;8.626;2024-03-08T08:48:04;34.17;;;18.75;;
49738;SDS011;53662;50.114;8.626;2024-03-08T08:50:30;32.53;;;16.75;;
49738;SDS011;53662;50.114;8.626;2024-03-08T08:52:57;34.00;;;18.63;;
49738;SDS011;53662;50.114;8.626;2024-03-08T08:55:23;32.40;;;17.52;;
49738;SDS011;53662;50.114;8.626;2024-03-08T08:57:52;30.27;;;18.00;;
49738;SDS011;53662;50.114;8.626;2024-03-08T09:00:21;28.73;;;17.83;;
49738;SDS011;53662;50.114;8.626;2024-03-08T09:02:52;29.73;;;16.88;;
49738;SDS011;53662;50.114;8.626;2024-03-08T09:05:20;103.95;;;20.92;;
49738;SDS011;53662;50.114;8.626;2024-03-08T09:07:46;35.20;;;17.20;;
49738;SDS011;53662;50.114;8.626;2024-03-08T09:10:12;31.73;;;17.00;;
49738;SDS011;53662;50.114;8.626;2024-03-08T09:12:39;31.17;;;16.90;;
49738;SDS011;53662;50.114;8.626;2024-03-08T09:15:05;36.40;;;16.92;;
49738;SDS011;53662;50.114;8.626;2024-03-08T09:17:33;28.40;;;17.90;;
49738;SDS011;53662;50.114;8.626;2024-03-08T09:19:59;44.00;;;17.30;;
49738;SDS011;53662;50.114;8.626;2024-03-08T09:22:25;28.38;;;15.68;;
49738;SDS011;53662;50.114;8.626;2024-03-08T09:24:51;30.48;;;17.27;;
49738;SDS011;53662;50.114;8.626;2024-03-08T09:27:17;39.80;;;16.73;;
49738;SDS011;53662;50.114;8.626;2024-03-08T09:29:43;28.17;;;16.33;;
49738;SDS011;53662;50.114;8.626;2024-03-08T09:32:09;27.52;;;17.10;;
49738;SDS011;53662;50.114;8.626;2024-03-08T09:34:36;27.50;;;15.05;;
49738;SDS011;53662;50.114;8.626;2024-03-08T09:37:02;23.17;;;14.85;;
49738;SDS011;53662;50.114;8.626;2024-03-08T09:39:29;40.03;;;16.45;;
49738;SDS011;53662;50.114;8.626;2024-03-08T09:41:55;30.42;;;14.65;;
49738;SDS011;53662;50.114;8.626;2024-03-08T09:44:21;24.90;;;13.25;;
49738;SDS011;53662;50.114;8.626;2024-03-08T09:46:48;26.58;;;13.73;;
49738;SDS011;53662;50.114;8.626;2024-03-08T09:49:16;24.00;;;15.25;;
49738;SDS011;53662;50.114;8.626;2024-03-08T09:51:42;19.92;;;13.68;;
49738;SDS011;53662;50.114;8.626;2024-03-08T09:54:08;24.48;;;14.43;;
49738;SDS011;53662;50.114;8.626;2024-03-08T09:56:35;20.30;;;13.00;;
49738;SDS011;53662;50.114;8.626;2024-03-08T09:59:01;126.60;;;17.70;;
49738;SDS011;53662;50.114;8.626;2024-03-08T10:01:30;24.60;;;14.38;;
49738;SDS011;53662;50.114;8.626;2024-03-08T10:03:57;18.58;;;12.82;;
49738;SDS011;53662;50.114;8.626;2024-03-08T10:06:23;26.27;;;14.90;;
49738;SDS011;53662;50.114;8.626;2024-03-08T10:08:49;20.20;;;13.65;;
49738;SDS011;53662;50.114;8.626;2024-03-08T10:11:17;23.15;;;13.32;;
49738;SDS011;53662;50.114;8.626;2024-03-08T10:13:42;24.42;;;13.77;;
49738;SDS011;53662;50.114;8.626;2024-03-08T10:16:11;21.38;;;13.77;;
49738;SDS011;53662;50.114;8.626;2024-03-08T10:18:37;18.00;;;12.50;;
49738;SDS011;53662;50.114;8.626;2024-03-08T10:21:06;26.63;;;14.05;;
49738;SDS011;53662;50.114;8.626;2024-03-08T10:23:33;17.65;;;12.25;;
49738;SDS011;53662;50.114;8.626;2024-03-08T10:26:12;25.13;;;13.25;;
49738;SDS011;53662;50.114;8.626;2024-03-08T10:28:39;17.38;;;12.98;;
49738;SDS011;53662;50.114;8.626;2024-03-08T10:31:05;20.45;;;12.75;;
49738;SDS011;53662;50.114;8.626;2024-03-08T10:33:32;21.42;;;12.50;;
49738;SDS011;53662;50.114;8.626;2024-03-08T10:35:58;148.38;;;18.55;;
49738;SDS011;53662;50.114;8.626;2024-03-08T10:38:24;63.75;;;14.18;;
49738;SDS011;53662;50.114;8.626;2024-03-08T10:40:52;21.38;;;13.43;;
49738;SDS011;53662;50.114;8.626;2024-03-08T10:43:22;16.52;;;12.23;;
49738;SDS011;53662;50.114;8.626;2024-03-08T10:45:59;19.75;;;12.57;;
49738;SDS011;53662;50.114;8.626;2024-03-08T10:48:31;31.42;;;12.20;;
49738;SDS011;53662;50.114;8.626;2024-03-08T10:50:57;19.00;;;11.82;;
49738;SDS011;53662;50.114;8.626;2024-03-08T10:53:26;24.20;;;12.00;;
49738;SDS011;53662;50.114;8.626;2024-03-08T10:55:53;16.92;;;11.18;;
49738;SDS011;53662;50.114;8.626;2024-03-08T10:58:22;37.15;;;11.20;;
49738;SDS011;53662;50.114;8.626;2024-03-08T11:00:48;26.15;;;12.60;;
49738;SDS011;53662;50.114;8.626;2024-03-08T11:05:59;61.58;;;13.68;;
49738;SDS011;53662;50.114;8.626;2024-03-08T11:08:26;17.58;;;12.98;;
49738;SDS011;53662;50.114;8.626;2024-03-08T11:10:56;20.73;;;11.95;;
49738;SDS011;53662;50.114;8.626;2024-03-08T11:13:38;40.10;;;12.68;;
49738;SDS011;53662;50.114;8.626;2024-03-08T11:16:07;18.73;;;12.50;;
49738;SDS011;53662;50.114;8.626;2024-03-08T11:18:36;34.78;;;12.40;;
49738;SDS011;53662;50.114;8.626;2024-03-08T11:21:07;50.45;;;13.57;;
49738;SDS011;53662;50.114;8.626;2024-03-08T11:23:37;24.48;;;13.02;;
49738;SDS011;53662;50.114;8.626;2024-03-08T11:26:05;36.03;;;12.23;;
49738;SDS011;53662;50.114;8.626;2024-03-08T11:28:43;17.95;;;11.10;;
49738;SDS011;53662;50.114;8.626;2024-03-08T11:33:35;22.13;;;12.77;;
49738;SDS011;53662;50.114;8.626;2024-03-08T11:36:11;20.42;;;11.50;;
49738;SDS011;53662;50.114;8.626;2024-03-08T11:38:41;19.92;;;11.27;;
49738;SDS011;53662;50.114;8.626;2024-03-08T11:41:08;28.08;;;10.18;;
49738;SDS011;53662;50.114;8.626;2024-03-08T11:43:37;26.98;;;11.80;;
49738;SDS011;53662;50.114;8.626;2024-03-08T11:46:08;23.73;;;11.98;;
49738;SDS011;53662;50.114;8.626;2024-03-08T11:48:34;32.58;;;11.93;;
49738;SDS011;53662;50.114;8.626;2024-03-08T11:51:03;15.27;;;10.68;;
49738;SDS011;53662;50.114;8.626;2024-03-08T11:53:30;30.30;;;10.70;;
49738;SDS011;53662;50.114;8.626;2024-03-08T11:56:05;14.85;;;10.85;;
49738;SDS011;53662;50.114;8.626;2024-03-08T11:58:31;17.05;;;10.95;;
49738;SDS011;53662;50.114;8.626;2024-03-08T12:01:07;23.63;;;12.73;;
49738;SDS011;53662;50.114;8.626;2024-03-08T12:03:41;30.42;;;12.55;;
49738;SDS011;53662;50.114;8.626;2024-03-08T12:06:11;25.73;;;11.85;;
49738;SDS011;53662;50.114;8.626;2024-03-08T12:08:40;25.35;;;12.68;;
49738;SDS011;53662;50.114;8.626;2024-03-08T12:11:06;14.98;;;11.63;;
49738;SDS011;53662;50.114;8.626;2024-03-08T12:13:35;16.88;;;11.95;;
49738;SDS011;53662;50.114;8.626;2024-03-08T12:16:04;16.17;;;11.00;;
49738;SDS011;53662;50.114;8.626;2024-03-08T12:18:34;17.42;;;11.43;;
49738;SDS011;53662;50.114;8.626;2024-03-08T12:21:04;19.08;;;11.88;;
49738;SDS011;53662;50.114;8.626;2024-03-08T12:23:32;42.50;;;12.38;;
49738;SDS011;53662;50.114;8.626;2024-03-08T12:26:08;15.27;;;11.45;;
49738;SDS011;53662;50.114;8.626;2024-03-08T12:28:38;17.80;;;11.93;;
49738;SDS011;53662;50.114;8.626;2024-03-08T12:31:04;16.30;;;11.85;;
49738;SDS011;53662;50.114;8.626;2024-03-08T12:33:35;17.40;;;12.20;;
49738;SDS011;53662;50.114;8.626;2024-03-08T12:36:01;22.77;;;11.20;;
49738;SDS011;53662;50.114;8.626;2024-03-08T12:38:30;22.08;;;12.57;;
49738;SDS011;53662;50.114;8.626;2024-03-08T12:41:00;25.48;;;12.30;;
49738;SDS011;53662;50.114;8.626;2024-03-08T12:43:27;16.92;;;11.95;;
49738;SDS011;53662;50.114;8.626;2024-03-08T12:45:55;19.23;;;12.32;;
49738;SDS011;53662;50.114;8.626;2024-03-08T12:48:21;17.25;;;11.63;;
49738;SDS011;53662;50.114;8.626;2024-03-08T12:50:47;23.05;;;13.15;;
49738;SDS011;53662;50.114;8.626;2024-03-08T12:53:13;21.05;;;12.82;;
49738;SDS011;53662;50.114;8.626;2024-03-08T12:55:39;438.35;;;37.78;;
49738;SDS011;53662;50.114;8.626;2024-03-08T12:58:05;68.32;;;15.30;;
49738;SDS011;53662;50.114;8.626;2024-03-08T13:00:34;42.58;;;13.60;;
49738;SDS011;53662;50.114;8.626;2024-03-08T13:03:01;27.48;;;13.52;;
49738;SDS011;53662;50.114;8.626;2024-03-08T13:05:28;26.23;;;11.80;;
49738;SDS011;53662;50.114;8.626;2024-03-08T13:07:55;18.90;;;12.68;;
49738;SDS011;53662;50.114;8.626;2024-03-08T13:10:22;16.90;;;12.00;;
49738;SDS011;53662;50.114;8.626;2024-03-08T13:12:48;21.08;;;12.07;;
49738;SDS011;53662;50.114;8.626;2024-03-08T13:15:14;21.05;;;12.27;;
49738;SDS011;53662;50.114;8.626;2024-03-08T13:17:45;20.10;;;12.57;;
49738;SDS011;53662;50.114;8.626;2024-03-08T13:20:11;26.70;;;12.65;;
49738;SDS011;53662;50.114;8.626;2024-03-08T13:22:44;16.50;;;12.70;;
49738;SDS011;53662;50.114;8.626;2024-03-08T13:25:12;16.00;;;11.85;;
49738;SDS011;53662;50.114;8.626;2024-03-08T13:27:41;18.42;;;12.05;;
49738;SDS011;53662;50.114;8.626;2024-03-08T13:30:10;20.45;;;11.18;;
49738;SDS011;53662;50.114;8.626;2024-03-08T13:32:43;19.90;;;11.18;;
49738;SDS011;53662;50.114;8.626;2024-03-08T13:35:09;15.32;;;11.90;;
49738;SDS011;53662;50.114;8.626;2024-03-08T13:37:38;23.35;;;11.65;;
49738;SDS011;53662;50.114;8.626;2024-03-08T13:40:04;18.27;;;12.82;;
49738;SDS011;53662;50.114;8.626;2024-03-08T13:42:30;18.55;;;12.65;;
49738;SDS011;53662;50.114;8.626;2024-03-08T13:44:56;17.90;;;13.13;;
49738;SDS011;53662;50.114;8.626;2024-03-08T13:47:22;18.45;;;12.15;;
49738;SDS011;53662;50.114;8.626;2024-03-08T13:49:49;18.67;;;12.43;;
49738;SDS011;53662;50.114;8.626;2024-03-08T13:52:15;17.55;;;13.15;;
49738;SDS011;53662;50.114;8.626;2024-03-08T13:54:41;17.95;;;11.05;;
49738;SDS011;53662;50.114;8.626;2024-03-08T13:57:07;20.35;;;11.52;;
49738;SDS011;53662;50.114;8.626;2024-03-08T13:59:34;25.50;;;13.45;;
49738;SDS011;53662;50.114;8.626;2024-03-08T14:02:00;23.10;;;13.32;;
49738;SDS011;53662;50.114;8.626;2024-03-08T14:04:27;17.23;;;12.40;;
49738;SDS011;53662;50.114;8.626;2024-03-08T14:06:53;23.27;;;12.52;;
49738;SDS011;53662;50.114;8.626;2024-03-08T14:09:26;18.30;;;11.48;;
49738;SDS011;53662;50.114;8.626;2024-03-08T14:11:53;29.98;;;13.52;;
49738;SDS011;53662;50.114;8.626;2024-03-08T14:14:20;32.80;;;13.10;;
49738;SDS011;53662;50.114;8.626;2024-03-08T14:16:48;26.45;;;12.45;;
49738;SDS011;53662;50.114;8.626;2024-03-08T14:19:14;20.83;;;11.57;;
49738;SDS011;53662;50.114;8.626;2024-03-08T14:21:40;20.67;;;13.82;;
49738;SDS011;53662;50.114;8.626;2024-03-08T14:24:07;16.75;;;12.57;;
49738;SDS011;53662;50.114;8.626;2024-03-08T14:26:33;17.48;;;12.40;;